ARB weather

Ann Arbor Municipal Airport
Ann Arbor, Michigan, United States

Public forecast

Using degrees Fahrenheit for public forecast. Weather courtesy of forecast.io.

METAR (pilot weather report)

Retrieved 2019/04/26 01:30 UTC (0 seconds ago):

KARB 260130Z AUTO 08005KT 2 1/2SM -RA BR BKN005 OVC011 10/09 A2968 RMK AO2 RAE0058B24 P0001 T01000094

TAF (pilot weather forecast)

Forecast is more than 12 hours old.

Closest forecast is Willow Run Airport, 9.6 nm (17.8 km) E. Retrieved 2019/04/25 00:24 UTC (1 day ago):

TAF KYIP 252320Z 2600/2624 08006KT P6SM -SHRA BKN028 OVC040 FM260200 04006KT 5SM -RA BR OVC018 FM260500 01008KT 2SM RA BR BKN008 OVC014 FM260900 34014KT 3SM -RA BR BKN006 OVC012 FM261200 32017G25KT P6SM -SHRA BKN014 OVC030 FM261700 29018G28KT P6SM BKN045